sensor_id;sensor_type;location;lat;lon;timestamp;P1;durP1;ratioP1;P2;durP2;ratioP2
7213;SDS011;3648;50.614;13.830;2023-09-12T00:00:09;10.47;;;9.47;;
7213;SDS011;3648;50.614;13.830;2023-09-12T00:02:36;10.63;;;9.57;;
7213;SDS011;3648;50.614;13.830;2023-09-12T00:05:04;10.67;;;9.67;;
7213;SDS011;3648;50.614;13.830;2023-09-12T00:07:31;11.47;;;10.37;;
7213;SDS011;3648;50.614;13.830;2023-09-12T00:09:58;11.27;;;10.17;;
7213;SDS011;3648;50.614;13.830;2023-09-12T00:12:26;11.37;;;10.37;;
7213;SDS011;3648;50.614;13.830;2023-09-12T00:14:54;10.43;;;9.43;;
7213;SDS011;3648;50.614;13.830;2023-09-12T00:17:20;12.17;;;10.97;;
7213;SDS011;3648;50.614;13.830;2023-09-12T00:19:47;11.10;;;9.33;;
7213;SDS011;3648;50.614;13.830;2023-09-12T00:22:14;11.07;;;10.03;;
7213;SDS011;3648;50.614;13.830;2023-09-12T00:24:41;10.97;;;9.87;;
7213;SDS011;3648;50.614;13.830;2023-09-12T00:27:08;10.83;;;9.83;;
7213;SDS011;3648;50.614;13.830;2023-09-12T00:29:36;10.83;;;9.73;;
7213;SDS011;3648;50.614;13.830;2023-09-12T00:32:04;11.40;;;10.40;;
7213;SDS011;3648;50.614;13.830;2023-09-12T00:34:31;10.80;;;9.80;;
7213;SDS011;3648;50.614;13.830;2023-09-12T00:36:58;11.77;;;10.67;;
7213;SDS011;3648;50.614;13.830;2023-09-12T00:39:25;10.40;;;9.50;;
7213;SDS011;3648;50.614;13.830;2023-09-12T00:41:52;10.40;;;9.50;;
7213;SDS011;3648;50.614;13.830;2023-09-12T00:44:18;10.93;;;9.73;;
7213;SDS011;3648;50.614;13.830;2023-09-12T00:46:47;11.20;;;10.10;;
7213;SDS011;3648;50.614;13.830;2023-09-12T00:49:15;11.80;;;10.63;;
7213;SDS011;3648;50.614;13.830;2023-09-12T00:51:43;12.20;;;11.00;;
7213;SDS011;3648;50.614;13.830;2023-09-12T00:54:12;10.83;;;9.80;;
7213;SDS011;3648;50.614;13.830;2023-09-12T00:56:39;10.37;;;9.17;;
7213;SDS011;3648;50.614;13.830;2023-09-12T00:59:06;9.80;;;8.90;;
7213;SDS011;3648;50.614;13.830;2023-09-12T01:01:34;10.57;;;9.57;;
7213;SDS011;3648;50.614;13.830;2023-09-12T01:04:02;11.23;;;10.23;;
7213;SDS011;3648;50.614;13.830;2023-09-12T01:06:30;12.13;;;10.93;;
7213;SDS011;3648;50.614;13.830;2023-09-12T01:08:59;10.73;;;9.73;;
7213;SDS011;3648;50.614;13.830;2023-09-12T01:11:27;11.30;;;10.20;;
7213;SDS011;3648;50.614;13.830;2023-09-12T01:13:54;11.57;;;10.10;;
7213;SDS011;3648;50.614;13.830;2023-09-12T01:16:21;11.30;;;10.20;;
7213;SDS011;3648;50.614;13.830;2023-09-12T01:18:48;10.53;;;9.60;;
7213;SDS011;3648;50.614;13.830;2023-09-12T01:27:21;10.37;;;9.37;;
7213;SDS011;3648;50.614;13.830;2023-09-12T01:29:53;11.30;;;9.93;;
7213;SDS011;3648;50.614;13.830;2023-09-12T01:32:23;10.60;;;9.60;;
7213;SDS011;3648;50.614;13.830;2023-09-12T01:34:50;10.67;;;9.67;;
7213;SDS011;3648;50.614;13.830;2023-09-12T01:37:17;11.60;;;9.80;;
7213;SDS011;3648;50.614;13.830;2023-09-12T01:39:44;11.60;;;10.43;;
7213;SDS011;3648;50.614;13.830;2023-09-12T01:42:11;12.37;;;11.27;;
7213;SDS011;3648;50.614;13.830;2023-09-12T01:44:44;11.53;;;10.50;;
7213;SDS011;3648;50.614;13.830;2023-09-12T01:47:12;11.40;;;10.30;;
7213;SDS011;3648;50.614;13.830;2023-09-12T01:49:41;11.70;;;10.60;;
7213;SDS011;3648;50.614;13.830;2023-09-12T01:52:09;12.57;;;11.37;;
7213;SDS011;3648;50.614;13.830;2023-09-12T01:54:37;12.97;;;11.77;;
7213;SDS011;3648;50.614;13.830;2023-09-12T01:57:05;12.07;;;10.97;;
7213;SDS011;3648;50.614;13.830;2023-09-12T01:59:33;12.20;;;11.00;;
7213;SDS011;3648;50.614;13.830;2023-09-12T02:02:01;12.17;;;11.07;;
7213;SDS011;3648;50.614;13.830;2023-09-12T02:04:29;12.80;;;11.53;;
7213;SDS011;3648;50.614;13.830;2023-09-12T02:06:56;12.07;;;10.87;;
7213;SDS011;3648;50.614;13.830;2023-09-12T02:09:23;11.67;;;10.47;;
7213;SDS011;3648;50.614;13.830;2023-09-12T02:11:50;11.87;;;10.67;;
7213;SDS011;3648;50.614;13.830;2023-09-12T02:14:18;12.53;;;11.20;;
7213;SDS011;3648;50.614;13.830;2023-09-12T02:16:45;11.07;;;9.97;;
7213;SDS011;3648;50.614;13.830;2023-09-12T02:19:13;11.90;;;10.73;;
7213;SDS011;3648;50.614;13.830;2023-09-12T02:21:40;12.20;;;11.07;;
7213;SDS011;3648;50.614;13.830;2023-09-12T02:24:08;11.90;;;10.80;;
7213;SDS011;3648;50.614;13.830;2023-09-12T02:26:35;12.77;;;11.57;;
7213;SDS011;3648;50.614;13.830;2023-09-12T02:29:02;11.90;;;10.63;;
7213;SDS011;3648;50.614;13.830;2023-09-12T02:31:31;11.83;;;10.60;;
7213;SDS011;3648;50.614;13.830;2023-09-12T02:33:58;11.50;;;10.40;;
7213;SDS011;3648;50.614;13.830;2023-09-12T02:36:26;12.23;;;11.00;;
7213;SDS011;3648;50.614;13.830;2023-09-12T02:38:54;11.83;;;10.63;;
7213;SDS011;3648;50.614;13.830;2023-09-12T02:41:21;11.80;;;10.70;;
7213;SDS011;3648;50.614;13.830;2023-09-12T02:43:48;12.77;;;11.57;;
7213;SDS011;3648;50.614;13.830;2023-09-12T02:46:15;11.67;;;10.57;;
7213;SDS011;3648;50.614;13.830;2023-09-12T02:48:42;12.10;;;10.93;;
7213;SDS011;3648;50.614;13.830;2023-09-12T02:51:09;12.67;;;11.37;;
7213;SDS011;3648;50.614;13.830;2023-09-12T02:53:38;12.20;;;11.00;;
7213;SDS011;3648;50.614;13.830;2023-09-12T02:56:05;13.60;;;12.20;;
7213;SDS011;3648;50.614;13.830;2023-09-12T02:58:31;13.17;;;11.87;;
7213;SDS011;3648;50.614;13.830;2023-09-12T03:00:58;13.30;;;11.80;;
7213;SDS011;3648;50.614;13.830;2023-09-12T03:03:26;13.33;;;12.03;;
7213;SDS011;3648;50.614;13.830;2023-09-12T03:05:57;12.37;;;11.27;;
7213;SDS011;3648;50.614;13.830;2023-09-12T03:08:24;12.20;;;11.00;;
7213;SDS011;3648;50.614;13.830;2023-09-12T03:10:54;11.93;;;10.83;;
7213;SDS011;3648;50.614;13.830;2023-09-12T03:13:22;12.23;;;11.13;;
7213;SDS011;3648;50.614;13.830;2023-09-12T03:15:52;11.93;;;10.83;;
7213;SDS011;3648;50.614;13.830;2023-09-12T03:18:19;12.47;;;11.30;;
7213;SDS011;3648;50.614;13.830;2023-09-12T03:20:46;14.10;;;12.80;;
7213;SDS011;3648;50.614;13.830;2023-09-12T03:23:13;13.60;;;12.20;;
7213;SDS011;3648;50.614;13.830;2023-09-12T03:25:40;13.33;;;12.03;;
7213;SDS011;3648;50.614;13.830;2023-09-12T03:28:08;13.80;;;12.50;;
7213;SDS011;3648;50.614;13.830;2023-09-12T03:30:36;12.70;;;11.50;;
7213;SDS011;3648;50.614;13.830;2023-09-12T03:33:04;13.13;;;11.83;;
7213;SDS011;3648;50.614;13.830;2023-09-12T03:35:32;13.03;;;11.73;;
7213;SDS011;3648;50.614;13.830;2023-09-12T03:37:59;12.93;;;11.70;;
7213;SDS011;3648;50.614;13.830;2023-09-12T03:40:27;13.87;;;12.47;;
7213;SDS011;3648;50.614;13.830;2023-09-12T03:42:55;12.40;;;11.20;;
7213;SDS011;3648;50.614;13.830;2023-09-12T03:45:24;12.37;;;11.10;;
7213;SDS011;3648;50.614;13.830;2023-09-12T03:47:51;12.53;;;11.33;;
7213;SDS011;3648;50.614;13.830;2023-09-12T03:50:18;13.10;;;11.70;;
7213;SDS011;3648;50.614;13.830;2023-09-12T03:52:45;12.90;;;11.63;;
7213;SDS011;3648;50.614;13.830;2023-09-12T03:55:12;12.03;;;10.93;;
7213;SDS011;3648;50.614;13.830;2023-09-12T03:57:39;12.40;;;11.10;;
7213;SDS011;3648;50.614;13.830;2023-09-12T04:00:06;12.13;;;11.03;;
7213;SDS011;3648;50.614;13.830;2023-09-12T04:02:35;11.77;;;10.63;;
7213;SDS011;3648;50.614;13.830;2023-09-12T04:05:02;11.13;;;10.13;;
7213;SDS011;3648;50.614;13.830;2023-09-12T04:07:29;13.30;;;12.03;;
7213;SDS011;3648;50.614;13.830;2023-09-12T04:09:56;12.43;;;11.23;;
7213;SDS011;3648;50.614;13.830;2023-09-12T04:12:24;11.00;;;10.10;;
7213;SDS011;3648;50.614;13.830;2023-09-12T04:14:52;13.37;;;12.07;;
7213;SDS011;3648;50.614;13.830;2023-09-12T04:17:20;12.80;;;11.50;;
7213;SDS011;3648;50.614;13.830;2023-09-12T04:19:48;12.37;;;11.27;;
7213;SDS011;3648;50.614;13.830;2023-09-12T04:22:15;13.10;;;11.90;;
7213;SDS011;3648;50.614;13.830;2023-09-12T04:24:42;13.03;;;11.73;;
7213;SDS011;3648;50.614;13.830;2023-09-12T04:27:09;13.60;;;12.30;;
7213;SDS011;3648;50.614;13.830;2023-09-12T04:29:36;12.83;;;11.53;;
7213;SDS011;3648;50.614;13.830;2023-09-12T04:32:04;13.00;;;11.80;;
7213;SDS011;3648;50.614;13.830;2023-09-12T04:34:32;12.80;;;11.50;;
7213;SDS011;3648;50.614;13.830;2023-09-12T04:37:01;12.23;;;11.03;;
7213;SDS011;3648;50.614;13.830;2023-09-12T04:39:30;12.27;;;11.03;;
7213;SDS011;3648;50.614;13.830;2023-09-12T04:41:57;14.03;;;12.63;;
7213;SDS011;3648;50.614;13.830;2023-09-12T04:44:24;13.00;;;11.80;;
7213;SDS011;3648;50.614;13.830;2023-09-12T04:46:51;13.23;;;11.93;;
7213;SDS011;3648;50.614;13.830;2023-09-12T04:49:18;13.53;;;12.07;;
7213;SDS011;3648;50.614;13.830;2023-09-12T04:51:45;14.17;;;12.60;;
7213;SDS011;3648;50.614;13.830;2023-09-12T04:54:14;14.93;;;13.43;;
7213;SDS011;3648;50.614;13.830;2023-09-12T04:56:41;14.07;;;12.70;;
7213;SDS011;3648;50.614;13.830;2023-09-12T04:59:07;16.60;;;12.07;;
7213;SDS011;3648;50.614;13.830;2023-09-12T05:01:34;13.63;;;12.23;;
7213;SDS011;3648;50.614;13.830;2023-09-12T05:04:02;13.40;;;12.10;;
7213;SDS011;3648;50.614;13.830;2023-09-12T05:06:29;14.27;;;11.93;;
7213;SDS011;3648;50.614;13.830;2023-09-12T05:08:56;14.13;;;11.70;;
7213;SDS011;3648;50.614;13.830;2023-09-12T05:11:25;13.47;;;12.07;;
7213;SDS011;3648;50.614;13.830;2023-09-12T05:13:52;13.07;;;11.90;;
7213;SDS011;3648;50.614;13.830;2023-09-12T05:16:19;12.97;;;11.73;;
7213;SDS011;3648;50.614;13.830;2023-09-12T05:18:46;13.23;;;12.03;;
7213;SDS011;3648;50.614;13.830;2023-09-12T05:21:14;13.60;;;12.20;;
7213;SDS011;3648;50.614;13.830;2023-09-12T05:23:41;13.33;;;11.97;;
7213;SDS011;3648;50.614;13.830;2023-09-12T05:26:08;14.47;;;12.97;;
7213;SDS011;3648;50.614;13.830;2023-09-12T05:28:36;13.90;;;12.47;;
7213;SDS011;3648;50.614;13.830;2023-09-12T05:31:03;12.97;;;11.77;;
7213;SDS011;3648;50.614;13.830;2023-09-12T05:33:30;14.53;;;13.07;;
7213;SDS011;3648;50.614;13.830;2023-09-12T05:35:58;14.17;;;12.70;;
7213;SDS011;3648;50.614;13.830;2023-09-12T05:38:25;14.70;;;13.40;;
7213;SDS011;3648;50.614;13.830;2023-09-12T05:40:51;32.60;;;14.50;;
7213;SDS011;3648;50.614;13.830;2023-09-12T05:43:18;14.03;;;12.53;;
7213;SDS011;3648;50.614;13.830;2023-09-12T05:45:47;13.67;;;12.27;;
7213;SDS011;3648;50.614;13.830;2023-09-12T05:48:14;13.07;;;11.77;;
7213;SDS011;3648;50.614;13.830;2023-09-12T05:50:41;13.77;;;12.43;;
7213;SDS011;3648;50.614;13.830;2023-09-12T05:53:08;13.50;;;12.07;;
7213;SDS011;3648;50.614;13.830;2023-09-12T05:55:35;14.63;;;12.23;;
7213;SDS011;3648;50.614;13.830;2023-09-12T05:58:02;13.80;;;12.47;;
7213;SDS011;3648;50.614;13.830;2023-09-12T06:00:31;14.77;;;13.27;;
7213;SDS011;3648;50.614;13.830;2023-09-12T06:02:59;14.20;;;12.80;;
7213;SDS011;3648;50.614;13.830;2023-09-12T06:05:26;16.00;;;12.40;;
7213;SDS011;3648;50.614;13.830;2023-09-12T06:07:53;13.63;;;12.23;;
7213;SDS011;3648;50.614;13.830;2023-09-12T06:10:21;13.33;;;11.90;;
7213;SDS011;3648;50.614;13.830;2023-09-12T06:12:48;14.37;;;13.00;;
7213;SDS011;3648;50.614;13.830;2023-09-12T06:15:15;14.37;;;13.03;;
7213;SDS011;3648;50.614;13.830;2023-09-12T06:17:42;13.50;;;12.20;;
7213;SDS011;3648;50.614;13.830;2023-09-12T06:20:11;15.17;;;13.57;;
7213;SDS011;3648;50.614;13.830;2023-09-12T06:22:38;13.70;;;12.30;;
7213;SDS011;3648;50.614;13.830;2023-09-12T06:25:05;14.00;;;12.50;;
7213;SDS011;3648;50.614;13.830;2023-09-12T06:27:33;15.00;;;13.37;;
7213;SDS011;3648;50.614;13.830;2023-09-12T06:29:59;15.63;;;13.83;;
7213;SDS011;3648;50.614;13.830;2023-09-12T06:32:26;14.10;;;12.53;;
7213;SDS011;3648;50.614;13.830;2023-09-12T06:34:53;14.37;;;12.87;;
7213;SDS011;3648;50.614;13.830;2023-09-12T06:37:22;15.43;;;13.07;;
7213;SDS011;3648;50.614;13.830;2023-09-12T06:39:49;17.70;;;15.90;;
7213;SDS011;3648;50.614;13.830;2023-09-12T06:42:17;17.37;;;14.93;;
7213;SDS011;3648;50.614;13.830;2023-09-12T06:44:44;17.53;;;14.80;;
7213;SDS011;3648;50.614;13.830;2023-09-12T06:47:11;16.23;;;14.53;;
7213;SDS011;3648;50.614;13.830;2023-09-12T06:49:38;18.27;;;15.30;;
7213;SDS011;3648;50.614;13.830;2023-09-12T06:52:05;15.90;;;14.40;;
7213;SDS011;3648;50.614;13.830;2023-09-12T06:54:35;17.00;;;14.33;;
7213;SDS011;3648;50.614;13.830;2023-09-12T06:57:03;15.67;;;13.70;;
7213;SDS011;3648;50.614;13.830;2023-09-12T06:59:30;16.97;;;15.07;;
7213;SDS011;3648;50.614;13.830;2023-09-12T07:01:57;18.57;;;14.03;;
7213;SDS011;3648;50.614;13.830;2023-09-12T07:04:24;16.13;;;13.93;;
7213;SDS011;3648;50.614;13.830;2023-09-12T07:06:51;17.30;;;14.50;;
7213;SDS011;3648;50.614;13.830;2023-09-12T07:09:18;15.67;;;14.03;;
7213;SDS011;3648;50.614;13.830;2023-09-12T07:11:47;16.07;;;14.33;;
7213;SDS011;3648;50.614;13.830;2023-09-12T07:14:14;16.10;;;13.90;;
7213;SDS011;3648;50.614;13.830;2023-09-12T07:16:41;15.93;;;13.67;;
7213;SDS011;3648;50.614;13.830;2023-09-12T07:19:08;15.20;;;13.57;;
7213;SDS011;3648;50.614;13.830;2023-09-12T07:21:35;15.47;;;13.87;;
7213;SDS011;3648;50.614;13.830;2023-09-12T07:24:02;13.87;;;12.40;;
7213;SDS011;3648;50.614;13.830;2023-09-12T07:26:29;13.83;;;11.90;;
7213;SDS011;3648;50.614;13.830;2023-09-12T07:28:57;13.27;;;11.87;;
7213;SDS011;3648;50.614;13.830;2023-09-12T07:31:27;13.20;;;11.77;;
7213;SDS011;3648;50.614;13.830;2023-09-12T07:33:54;14.10;;;11.83;;
7213;SDS011;3648;50.614;13.830;2023-09-12T07:36:21;14.10;;;11.97;;
7213;SDS011;3648;50.614;13.830;2023-09-12T07:38:48;13.53;;;11.77;;
7213;SDS011;3648;50.614;13.830;2023-09-12T07:41:16;13.90;;;12.40;;
7213;SDS011;3648;50.614;13.830;2023-09-12T07:43:44;11.90;;;10.73;;
7213;SDS011;3648;50.614;13.830;2023-09-12T07:46:12;12.30;;;11.03;;
7213;SDS011;3648;50.614;13.830;2023-09-12T07:48:39;11.70;;;10.60;;
7213;SDS011;3648;50.614;13.830;2023-09-12T07:51:13;12.50;;;11.20;;
7213;SDS011;3648;50.614;13.830;2023-09-12T07:53:42;12.83;;;11.63;;
7213;SDS011;3648;50.614;13.830;2023-09-12T07:56:09;12.17;;;10.97;;
7213;SDS011;3648;50.614;13.830;2023-09-12T07:58:37;12.20;;;10.90;;
7213;SDS011;3648;50.614;13.830;2023-09-12T08:01:06;12.23;;;11.03;;
7213;SDS011;3648;50.614;13.830;2023-09-12T08:03:36;12.50;;;11.17;;
7213;SDS011;3648;50.614;13.830;2023-09-12T08:06:04;11.53;;;10.43;;
7213;SDS011;3648;50.614;13.830;2023-09-12T08:08:32;13.37;;;11.97;;
7213;SDS011;3648;50.614;13.830;2023-09-12T08:10:59;13.93;;;11.83;;
7213;SDS011;3648;50.614;13.830;2023-09-12T08:13:27;12.63;;;11.43;;
7213;SDS011;3648;50.614;13.830;2023-09-12T08:15:54;12.50;;;11.20;;
7213;SDS011;3648;50.614;13.830;2023-09-12T08:18:21;12.20;;;10.33;;
7213;SDS011;3648;50.614;13.830;2023-09-12T08:20:52;12.20;;;11.10;;
7213;SDS011;3648;50.614;13.830;2023-09-12T08:23:19;12.60;;;11.30;;
7213;SDS011;3648;50.614;13.830;2023-09-12T08:25:46;12.53;;;11.33;;
7213;SDS011;3648;50.614;13.830;2023-09-12T08:28:13;12.83;;;11.53;;
7213;SDS011;3648;50.614;13.830;2023-09-12T08:30:41;14.97;;;12.40;;
7213;SDS011;3648;50.614;13.830;2023-09-12T08:33:09;13.03;;;11.80;;
7213;SDS011;3648;50.614;13.830;2023-09-12T08:35:36;13.67;;;12.17;;
7213;SDS011;3648;50.614;13.830;2023-09-12T08:38:04;11.90;;;10.70;;
7213;SDS011;3648;50.614;13.830;2023-09-12T08:40:32;10.93;;;9.83;;
7213;SDS011;3648;50.614;13.830;2023-09-12T08:43:00;12.10;;;11.00;;
7213;SDS011;3648;50.614;13.830;2023-09-12T08:45:29;11.70;;;9.83;;
7213;SDS011;3648;50.614;13.830;2023-09-12T08:47:57;11.43;;;9.90;;
7213;SDS011;3648;50.614;13.830;2023-09-12T08:50:26;12.17;;;11.00;;
7213;SDS011;3648;50.614;13.830;2023-09-12T08:52:58;11.10;;;10.00;;
7213;SDS011;3648;50.614;13.830;2023-09-12T08:55:26;10.87;;;9.77;;
7213;SDS011;3648;50.614;13.830;2023-09-12T08:57:54;11.50;;;10.30;;
7213;SDS011;3648;50.614;13.830;2023-09-12T09:00:22;10.97;;;9.97;;
7213;SDS011;3648;50.614;13.830;2023-09-12T09:02:51;11.77;;;10.67;;
7213;SDS011;3648;50.614;13.830;2023-09-12T09:05:20;12.07;;;10.27;;
7213;SDS011;3648;50.614;13.830;2023-09-12T09:07:48;11.37;;;10.27;;
7213;SDS011;3648;50.614;13.830;2023-09-12T09:10:16;11.07;;;9.93;;
7213;SDS011;3648;50.614;13.830;2023-09-12T09:12:46;11.03;;;9.83;;
7213;SDS011;3648;50.614;13.830;2023-09-12T09:15:19;10.53;;;9.47;;
7213;SDS011;3648;50.614;13.830;2023-09-12T09:17:47;10.73;;;9.67;;
7213;SDS011;3648;50.614;13.830;2023-09-12T09:20:25;10.13;;;9.13;;
7213;SDS011;3648;50.614;13.830;2023-09-12T09:22:57;10.57;;;9.57;;
7213;SDS011;3648;50.614;13.830;2023-09-12T09:25:25;9.93;;;9.03;;
7213;SDS011;3648;50.614;13.830;2023-09-12T09:27:54;11.50;;;9.70;;
7213;SDS011;3648;50.614;13.830;2023-09-12T09:33:07;12.77;;;9.17;;
7213;SDS011;3648;50.614;13.830;2023-09-12T09:35:35;9.47;;;8.53;;
7213;SDS011;3648;50.614;13.830;2023-09-12T09:38:04;9.90;;;9.00;;
7213;SDS011;3648;50.614;13.830;2023-09-12T09:40:32;9.50;;;8.53;;
7213;SDS011;3648;50.614;13.830;2023-09-12T09:43:02;10.27;;;8.93;;
7213;SDS011;3648;50.614;13.830;2023-09-12T09:45:30;10.80;;;9.70;;
7213;SDS011;3648;50.614;13.830;2023-09-12T09:47:58;10.27;;;9.17;;
7213;SDS011;3648;50.614;13.830;2023-09-12T09:50:31;9.03;;;8.23;;
7213;SDS011;3648;50.614;13.830;2023-09-12T09:53:02;9.53;;;8.53;;
7213;SDS011;3648;50.614;13.830;2023-09-12T09:55:30;9.77;;;8.87;;
7213;SDS011;3648;50.614;13.830;2023-09-12T09:57:57;10.87;;;9.77;;
7213;SDS011;3648;50.614;13.830;2023-09-12T10:00:26;10.63;;;9.63;;
7213;SDS011;3648;50.614;13.830;2023-09-12T10:02:55;10.33;;;9.33;;
7213;SDS011;3648;50.614;13.830;2023-09-12T10:05:23;10.97;;;9.93;;
7213;SDS011;3648;50.614;13.830;2023-09-12T10:07:50;10.93;;;9.30;;
7213;SDS011;3648;50.614;13.830;2023-09-12T10:10:21;10.00;;;9.10;;
7213;SDS011;3648;50.614;13.830;2023-09-12T10:12:51;12.73;;;9.43;;
7213;SDS011;3648;50.614;13.830;2023-09-12T10:15:23;10.40;;;9.20;;
7213;SDS011;3648;50.614;13.830;2023-09-12T10:17:56;9.57;;;8.67;;
7213;SDS011;3648;50.614;13.830;2023-09-12T10:20:25;10.10;;;8.97;;
7213;SDS011;3648;50.614;13.830;2023-09-12T10:22:59;9.87;;;8.97;;
7213;SDS011;3648;50.614;13.830;2023-09-12T10:25:34;9.60;;;8.67;;
7213;SDS011;3648;50.614;13.830;2023-09-12T10:28:03;10.07;;;9.17;;
7213;SDS011;3648;50.614;13.830;2023-09-12T10:30:32;12.47;;;9.33;;
7213;SDS011;3648;50.614;13.830;2023-09-12T10:33:00;9.33;;;8.43;;
7213;SDS011;3648;50.614;13.830;2023-09-12T10:35:29;10.33;;;9.27;;
7213;SDS011;3648;50.614;13.830;2023-09-12T10:37:59;13.23;;;8.77;;
7213;SDS011;3648;50.614;13.830;2023-09-12T10:40:29;10.10;;;8.97;;
7213;SDS011;3648;50.614;13.830;2023-09-12T10:42:57;9.50;;;8.30;;
7213;SDS011;3648;50.614;13.830;2023-09-12T10:45:26;9.27;;;8.37;;
7213;SDS011;3648;50.614;13.830;2023-09-12T10:47:55;11.77;;;9.17;;
7213;SDS011;3648;50.614;13.830;2023-09-12T10:50:22;10.63;;;9.53;;
7213;SDS011;3648;50.614;13.830;2023-09-12T10:52:50;12.20;;;9.37;;
7213;SDS011;3648;50.614;13.830;2023-09-12T10:55:17;9.50;;;8.27;;
7213;SDS011;3648;50.614;13.830;2023-09-12T10:58:00;9.57;;;8.60;;
7213;SDS011;3648;50.614;13.830;2023-09-12T11:00:29;9.43;;;7.90;;
7213;SDS011;3648;50.614;13.830;2023-09-12T11:02:59;10.17;;;8.17;;
7213;SDS011;3648;50.614;13.830;2023-09-12T11:05:57;8.23;;;7.43;;
7213;SDS011;3648;50.614;13.830;2023-09-12T11:08:24;8.60;;;7.70;;
7213;SDS011;3648;50.614;13.830;2023-09-12T11:13:44;8.07;;;7.33;;
7213;SDS011;3648;50.614;13.830;2023-09-12T11:16:12;9.30;;;8.23;;
7213;SDS011;3648;50.614;13.830;2023-09-12T11:21:50;8.07;;;6.60;;
7213;SDS011;3648;50.614;13.830;2023-09-12T11:24:17;8.07;;;7.37;;
7213;SDS011;3648;50.614;13.830;2023-09-12T11:26:52;10.67;;;7.57;;
7213;SDS011;3648;50.614;13.830;2023-09-12T11:29:20;9.60;;;7.10;;
7213;SDS011;3648;50.614;13.830;2023-09-12T11:31:52;7.67;;;6.97;;
7213;SDS011;3648;50.614;13.830;2023-09-12T11:34:23;7.10;;;6.20;;
7213;SDS011;3648;50.614;13.830;2023-09-12T11:36:54;8.03;;;7.10;;
7213;SDS011;3648;50.614;13.830;2023-09-12T11:39:22;7.50;;;6.13;;
7213;SDS011;3648;50.614;13.830;2023-09-12T11:41:50;6.70;;;6.00;;
7213;SDS011;3648;50.614;13.830;2023-09-12T11:44:18;7.23;;;6.20;;
7213;SDS011;3648;50.614;13.830;2023-09-12T11:46:47;7.37;;;6.63;;
7213;SDS011;3648;50.614;13.830;2023-09-12T11:49:15;7.50;;;6.40;;
7213;SDS011;3648;50.614;13.830;2023-09-12T11:51:46;12.40;;;7.13;;
7213;SDS011;3648;50.614;13.830;2023-09-12T11:54:16;8.20;;;6.77;;
7213;SDS011;3648;50.614;13.830;2023-09-12T11:56:46;6.57;;;5.50;;
7213;SDS011;3648;50.614;13.830;2023-09-12T11:59:13;6.40;;;5.23;;
7213;SDS011;3648;50.614;13.830;2023-09-12T12:01:43;9.10;;;5.93;;
7213;SDS011;3648;50.614;13.830;2023-09-12T12:04:11;10.37;;;5.73;;
7213;SDS011;3648;50.614;13.830;2023-09-12T12:06:38;5.60;;;4.97;;
7213;SDS011;3648;50.614;13.830;2023-09-12T12:12:03;7.67;;;5.93;;
7213;SDS011;3648;50.614;13.830;2023-09-12T12:14:33;6.37;;;5.77;;
7213;SDS011;3648;50.614;13.830;2023-09-12T12:17:05;6.37;;;5.77;;
7213;SDS011;3648;50.614;13.830;2023-09-12T12:19:33;5.90;;;5.30;;
7213;SDS011;3648;50.614;13.830;2023-09-12T12:22:01;7.03;;;5.50;;
7213;SDS011;3648;50.614;13.830;2023-09-12T12:24:37;8.00;;;5.03;;
7213;SDS011;3648;50.614;13.830;2023-09-12T12:27:05;6.37;;;5.40;;
7213;SDS011;3648;50.614;13.830;2023-09-12T12:29:33;6.97;;;5.63;;
7213;SDS011;3648;50.614;13.830;2023-09-12T12:32:01;7.17;;;5.60;;
7213;SDS011;3648;50.614;13.830;2023-09-12T12:34:30;8.07;;;5.50;;
7213;SDS011;3648;50.614;13.830;2023-09-12T12:36:57;6.70;;;5.63;;
7213;SDS011;3648;50.614;13.830;2023-09-12T12:39:24;8.47;;;6.23;;
7213;SDS011;3648;50.614;13.830;2023-09-12T12:41:53;9.47;;;5.87;;
7213;SDS011;3648;50.614;13.830;2023-09-12T12:44:20;6.97;;;5.90;;
7213;SDS011;3648;50.614;13.830;2023-09-12T12:46:48;7.37;;;5.90;;
7213;SDS011;3648;50.614;13.830;2023-09-12T12:49:15;8.57;;;6.00;;
7213;SDS011;3648;50.614;13.830;2023-09-12T12:51:42;9.80;;;6.43;;
7213;SDS011;3648;50.614;13.830;2023-09-12T12:54:09;7.93;;;6.20;;
7213;SDS011;3648;50.614;13.830;2023-09-12T12:56:36;6.77;;;5.80;;
7213;SDS011;3648;50.614;13.830;2023-09-12T12:59:06;7.03;;;5.97;;
7213;SDS011;3648;50.614;13.830;2023-09-12T13:01:34;7.43;;;6.73;;
7213;SDS011;3648;50.614;13.830;2023-09-12T13:04:01;7.13;;;6.13;;
7213;SDS011;3648;50.614;13.830;2023-09-12T13:06:30;7.23;;;6.50;;
7213;SDS011;3648;50.614;13.830;2023-09-12T13:09:00;8.93;;;7.10;;
7213;SDS011;3648;50.614;13.830;2023-09-12T13:11:30;7.87;;;6.33;;
7213;SDS011;3648;50.614;13.830;2023-09-12T13:13:58;7.23;;;6.53;;
7213;SDS011;3648;50.614;13.830;2023-09-12T13:16:26;7.70;;;6.10;;
7213;SDS011;3648;50.614;13.830;2023-09-12T13:18:54;8.30;;;6.93;;
7213;SDS011;3648;50.614;13.830;2023-09-12T13:21:21;7.07;;;6.37;;
7213;SDS011;3648;50.614;13.830;2023-09-12T13:23:48;10.67;;;6.37;;
7213;SDS011;3648;50.614;13.830;2023-09-12T13:26:15;8.63;;;5.97;;
7213;SDS011;3648;50.614;13.830;2023-09-12T13:28:42;7.70;;;6.87;;
7213;SDS011;3648;50.614;13.830;2023-09-12T13:31:09;9.10;;;6.90;;
7213;SDS011;3648;50.614;13.830;2023-09-12T13:33:38;7.83;;;6.20;;
7213;SDS011;3648;50.614;13.830;2023-09-12T13:36:07;7.43;;;6.77;;
7213;SDS011;3648;50.614;13.830;2023-09-12T13:38:34;7.40;;;6.50;;
7213;SDS011;3648;50.614;13.830;2023-09-12T13:41:03;7.13;;;6.53;;
7213;SDS011;3648;50.614;13.830;2023-09-12T13:43:30;8.60;;;6.50;;
7213;SDS011;3648;50.614;13.830;2023-09-12T13:45:57;8.50;;;6.63;;
7213;SDS011;3648;50.614;13.830;2023-09-12T13:48:24;9.47;;;6.83;;
7213;SDS011;3648;50.614;13.830;2023-09-12T13:50:53;10.07;;;6.97;;
7213;SDS011;3648;50.614;13.830;2023-09-12T13:53:20;7.70;;;6.43;;
7213;SDS011;3648;50.614;13.830;2023-09-12T13:55:47;7.93;;;6.83;;
7213;SDS011;3648;50.614;13.830;2023-09-12T13:58:13;8.67;;;6.97;;
7213;SDS011;3648;50.614;13.830;2023-09-12T14:00:40;7.50;;;6.80;;
7213;SDS011;3648;50.614;13.830;2023-09-12T14:03:07;7.50;;;6.70;;
7213;SDS011;3648;50.614;13.830;2023-09-12T14:05:34;7.37;;;6.57;;
7213;SDS011;3648;50.614;13.830;2023-09-12T14:08:03;10.13;;;6.40;;
7213;SDS011;3648;50.614;13.830;2023-09-12T14:10:30;6.37;;;5.73;;
7213;SDS011;3648;50.614;13.830;2023-09-12T14:12:57;8.83;;;6.93;;
7213;SDS011;3648;50.614;13.830;2023-09-12T14:15:24;8.20;;;7.03;;
7213;SDS011;3648;50.614;13.830;2023-09-12T14:17:52;7.73;;;7.00;;
7213;SDS011;3648;50.614;13.830;2023-09-12T14:20:19;9.87;;;6.63;;
7213;SDS011;3648;50.614;13.830;2023-09-12T14:22:45;7.93;;;7.17;;
7213;SDS011;3648;50.614;13.830;2023-09-12T14:25:14;10.20;;;6.57;;
7213;SDS011;3648;50.614;13.830;2023-09-12T14:27:41;6.83;;;6.20;;
7213;SDS011;3648;50.614;13.830;2023-09-12T14:30:09;7.93;;;6.93;;
7213;SDS011;3648;50.614;13.830;2023-09-12T14:32:39;10.37;;;6.73;;
7213;SDS011;3648;50.614;13.830;2023-09-12T14:35:06;7.10;;;6.40;;
7213;SDS011;3648;50.614;13.830;2023-09-12T14:37:34;9.63;;;7.13;;
7213;SDS011;3648;50.614;13.830;2023-09-12T14:40:03;7.23;;;6.53;;
7213;SDS011;3648;50.614;13.830;2023-09-12T14:42:33;6.13;;;5.57;;
7213;SDS011;3648;50.614;13.830;2023-09-12T14:45:00;7.67;;;5.93;;
7213;SDS011;3648;50.614;13.830;2023-09-12T14:47:27;7.30;;;5.50;;
7213;SDS011;3648;50.614;13.830;2023-09-12T14:49:55;6.63;;;5.83;;
7213;SDS011;3648;50.614;13.830;2023-09-12T14:52:22;7.33;;;6.00;;
7213;SDS011;3648;50.614;13.830;2023-09-12T14:54:51;6.50;;;5.87;;
7213;SDS011;3648;50.614;13.830;2023-09-12T14:57:18;8.10;;;6.40;;
7213;SDS011;3648;50.614;13.830;2023-09-12T14:59:47;7.83;;;6.50;;
7213;SDS011;3648;50.614;13.830;2023-09-12T15:02:15;6.90;;;6.07;;
7213;SDS011;3648;50.614;13.830;2023-09-12T15:04:42;8.33;;;5.73;;
7213;SDS011;3648;50.614;13.830;2023-09-12T15:07:09;7.23;;;6.13;;